sensor_id;sensor_type;location;lat;lon;timestamp;temperature;humidity
12634;DHT22;6382;48.614;8.880;2023-07-02T00:02:15;16.40;99.90
12634;DHT22;6382;48.614;8.880;2023-07-02T00:04:43;16.70;99.90
12634;DHT22;6382;48.614;8.880;2023-07-02T00:07:10;18.00;99.90
12634;DHT22;6382;48.614;8.880;2023-07-02T00:09:37;16.30;99.90
12634;DHT22;6382;48.614;8.880;2023-07-02T00:12:04;18.20;99.90
12634;DHT22;6382;48.614;8.880;2023-07-02T00:14:30;16.40;99.90
12634;DHT22;6382;48.614;8.880;2023-07-02T00:16:57;17.30;99.90
12634;DHT22;6382;48.614;8.880;2023-07-02T00:19:25;17.30;99.90
12634;DHT22;6382;48.614;8.880;2023-07-02T00:21:51;16.20;99.90
12634;DHT22;6382;48.614;8.880;2023-07-02T00:24:20;16.20;99.90
12634;DHT22;6382;48.614;8.880;2023-07-02T00:26:46;16.30;99.90
12634;DHT22;6382;48.614;8.880;2023-07-02T00:29:13;16.80;99.90
12634;DHT22;6382;48.614;8.880;2023-07-02T00:31:40;16.20;99.90
12634;DHT22;6382;48.614;8.880;2023-07-02T00:34:07;16.90;99.90
12634;DHT22;6382;48.614;8.880;2023-07-02T00:36:34;16.20;99.90
12634;DHT22;6382;48.614;8.880;2023-07-02T00:39:00;16.20;99.90
12634;DHT22;6382;48.614;8.880;2023-07-02T00:41:27;16.30;99.90
12634;DHT22;6382;48.614;8.880;2023-07-02T00:43:54;17.30;99.90
12634;DHT22;6382;48.614;8.880;2023-07-02T00:46:22;17.00;99.90
12634;DHT22;6382;48.614;8.880;2023-07-02T00:48:50;17.60;99.90
12634;DHT22;6382;48.614;8.880;2023-07-02T00:51:18;16.50;99.90
12634;DHT22;6382;48.614;8.880;2023-07-02T00:53:45;16.50;99.90
12634;DHT22;6382;48.614;8.880;2023-07-02T00:56:13;18.70;99.90
12634;DHT22;6382;48.614;8.880;2023-07-02T00:58:41;16.50;99.90
12634;DHT22;6382;48.614;8.880;2023-07-02T01:01:15;17.80;99.90
12634;DHT22;6382;48.614;8.880;2023-07-02T01:06:26;16.30;99.90
12634;DHT22;6382;48.614;8.880;2023-07-02T01:08:54;17.50;99.90
12634;DHT22;6382;48.614;8.880;2023-07-02T01:11:22;15.90;99.90
12634;DHT22;6382;48.614;8.880;2023-07-02T01:13:50;16.20;99.90
12634;DHT22;6382;48.614;8.880;2023-07-02T01:16:19;15.80;99.90
12634;DHT22;6382;48.614;8.880;2023-07-02T01:18:46;18.60;99.90
12634;DHT22;6382;48.614;8.880;2023-07-02T01:21:13;16.00;99.90
12634;DHT22;6382;48.614;8.880;2023-07-02T01:23:40;15.80;99.90
12634;DHT22;6382;48.614;8.880;2023-07-02T01:26:07;15.80;99.90
12634;DHT22;6382;48.614;8.880;2023-07-02T01:28:35;15.70;99.90
12634;DHT22;6382;48.614;8.880;2023-07-02T01:31:04;17.30;99.90
12634;DHT22;6382;48.614;8.880;2023-07-02T01:33:31;16.20;99.90
12634;DHT22;6382;48.614;8.880;2023-07-02T01:35:58;15.50;99.90
12634;DHT22;6382;48.614;8.880;2023-07-02T01:38:25;15.50;99.90
12634;DHT22;6382;48.614;8.880;2023-07-02T01:40:52;15.50;99.90
12634;DHT22;6382;48.614;8.880;2023-07-02T01:43:19;15.50;99.90
12634;DHT22;6382;48.614;8.880;2023-07-02T01:45:45;15.50;99.90
12634;DHT22;6382;48.614;8.880;2023-07-02T01:48:12;16.50;99.90
12634;DHT22;6382;48.614;8.880;2023-07-02T01:50:39;17.30;99.90
12634;DHT22;6382;48.614;8.880;2023-07-02T01:53:06;16.60;99.90
12634;DHT22;6382;48.614;8.880;2023-07-02T01:55:33;15.70;99.90
12634;DHT22;6382;48.614;8.880;2023-07-02T01:58:00;18.10;99.90
12634;DHT22;6382;48.614;8.880;2023-07-02T02:00:26;15.80;99.90
12634;DHT22;6382;48.614;8.880;2023-07-02T02:02:53;15.80;99.90
12634;DHT22;6382;48.614;8.880;2023-07-02T02:05:20;15.80;99.90
12634;DHT22;6382;48.614;8.880;2023-07-02T02:07:47;15.70;99.90
12634;DHT22;6382;48.614;8.880;2023-07-02T02:10:14;15.70;99.90
12634;DHT22;6382;48.614;8.880;2023-07-02T02:12:41;15.50;99.90
12634;DHT22;6382;48.614;8.880;2023-07-02T02:15:08;15.40;99.90
12634;DHT22;6382;48.614;8.880;2023-07-02T02:17:35;15.10;99.90
12634;DHT22;6382;48.614;8.880;2023-07-02T02:20:02;15.50;99.90
12634;DHT22;6382;48.614;8.880;2023-07-02T02:22:32;14.90;99.90
12634;DHT22;6382;48.614;8.880;2023-07-02T02:24:59;16.90;99.90
12634;DHT22;6382;48.614;8.880;2023-07-02T02:27:26;14.90;99.90
12634;DHT22;6382;48.614;8.880;2023-07-02T02:29:52;15.70;99.90
12634;DHT22;6382;48.614;8.880;2023-07-02T02:32:19;14.90;99.90
12634;DHT22;6382;48.614;8.880;2023-07-02T02:34:48;15.10;99.90
12634;DHT22;6382;48.614;8.880;2023-07-02T02:37:15;15.30;99.90
12634;DHT22;6382;48.614;8.880;2023-07-02T02:39:41;15.10;99.90
12634;DHT22;6382;48.614;8.880;2023-07-02T02:42:08;15.20;99.90
12634;DHT22;6382;48.614;8.880;2023-07-02T02:44:35;15.00;99.90
12634;DHT22;6382;48.614;8.880;2023-07-02T02:47:02;15.10;99.90
12634;DHT22;6382;48.614;8.880;2023-07-02T02:49:29;15.20;99.90
12634;DHT22;6382;48.614;8.880;2023-07-02T02:51:56;15.30;99.90
12634;DHT22;6382;48.614;8.880;2023-07-02T02:54:22;16.70;99.90
12634;DHT22;6382;48.614;8.880;2023-07-02T02:56:49;16.60;99.90
12634;DHT22;6382;48.614;8.880;2023-07-02T02:59:16;15.30;99.90
12634;DHT22;6382;48.614;8.880;2023-07-02T03:01:43;15.40;99.90
12634;DHT22;6382;48.614;8.880;2023-07-02T03:04:09;15.40;99.90
12634;DHT22;6382;48.614;8.880;2023-07-02T03:06:36;15.50;99.90
12634;DHT22;6382;48.614;8.880;2023-07-02T03:09:03;16.80;99.90
12634;DHT22;6382;48.614;8.880;2023-07-02T03:11:30;15.40;99.90
12634;DHT22;6382;48.614;8.880;2023-07-02T03:13:57;16.20;99.90
12634;DHT22;6382;48.614;8.880;2023-07-02T03:16:23;17.20;99.90
12634;DHT22;6382;48.614;8.880;2023-07-02T03:18:50;15.30;99.90
12634;DHT22;6382;48.614;8.880;2023-07-02T03:21:17;16.40;99.90
12634;DHT22;6382;48.614;8.880;2023-07-02T03:23:44;15.30;99.90
12634;DHT22;6382;48.614;8.880;2023-07-02T03:26:11;15.30;99.90
12634;DHT22;6382;48.614;8.880;2023-07-02T03:28:38;15.30;99.90
12634;DHT22;6382;48.614;8.880;2023-07-02T03:31:04;15.40;99.90
12634;DHT22;6382;48.614;8.880;2023-07-02T03:33:32;15.30;99.90
12634;DHT22;6382;48.614;8.880;2023-07-02T03:36:00;15.40;99.90
12634;DHT22;6382;48.614;8.880;2023-07-02T03:38:26;15.30;99.90
12634;DHT22;6382;48.614;8.880;2023-07-02T03:40:53;17.10;99.90
12634;DHT22;6382;48.614;8.880;2023-07-02T03:43:20;15.10;99.90
12634;DHT22;6382;48.614;8.880;2023-07-02T03:45:47;15.10;99.90
12634;DHT22;6382;48.614;8.880;2023-07-02T03:48:13;17.30;99.90
12634;DHT22;6382;48.614;8.880;2023-07-02T03:50:40;14.60;99.90
12634;DHT22;6382;48.614;8.880;2023-07-02T03:53:07;15.00;99.90
12634;DHT22;6382;48.614;8.880;2023-07-02T03:55:35;14.90;99.90
12634;DHT22;6382;48.614;8.880;2023-07-02T03:58:01;14.90;99.90
12634;DHT22;6382;48.614;8.880;2023-07-02T04:00:28;14.90;99.90
12634;DHT22;6382;48.614;8.880;2023-07-02T04:02:55;15.30;99.90
12634;DHT22;6382;48.614;8.880;2023-07-02T04:05:23;15.70;99.90
12634;DHT22;6382;48.614;8.880;2023-07-02T04:07:50;14.80;99.90
12634;DHT22;6382;48.614;8.880;2023-07-02T04:10:17;14.80;99.90
12634;DHT22;6382;48.614;8.880;2023-07-02T04:12:43;14.90;99.90
12634;DHT22;6382;48.614;8.880;2023-07-02T04:15:11;14.90;99.90
12634;DHT22;6382;48.614;8.880;2023-07-02T04:17:38;14.90;99.90
12634;DHT22;6382;48.614;8.880;2023-07-02T04:20:05;14.90;99.90
12634;DHT22;6382;48.614;8.880;2023-07-02T04:22:33;14.90;99.90
12634;DHT22;6382;48.614;8.880;2023-07-02T04:24:59;15.00;99.90
12634;DHT22;6382;48.614;8.880;2023-07-02T04:27:37;14.90;99.90
12634;DHT22;6382;48.614;8.880;2023-07-02T04:30:16;15.00;99.90
12634;DHT22;6382;48.614;8.880;2023-07-02T04:32:43;15.10;99.90
12634;DHT22;6382;48.614;8.880;2023-07-02T04:35:10;15.20;99.90
12634;DHT22;6382;48.614;8.880;2023-07-02T04:37:37;15.30;99.90
12634;DHT22;6382;48.614;8.880;2023-07-02T04:40:05;15.80;99.90
12634;DHT22;6382;48.614;8.880;2023-07-02T04:42:38;15.30;99.90
12634;DHT22;6382;48.614;8.880;2023-07-02T04:45:06;15.40;99.90
12634;DHT22;6382;48.614;8.880;2023-07-02T04:47:33;15.50;99.90
12634;DHT22;6382;48.614;8.880;2023-07-02T04:50:00;15.60;99.90
12634;DHT22;6382;48.614;8.880;2023-07-02T04:52:27;17.40;99.90
12634;DHT22;6382;48.614;8.880;2023-07-02T04:54:54;16.00;99.90
12634;DHT22;6382;48.614;8.880;2023-07-02T04:57:22;16.10;99.90
12634;DHT22;6382;48.614;8.880;2023-07-02T04:59:49;16.20;99.90
12634;DHT22;6382;48.614;8.880;2023-07-02T05:02:16;16.80;99.90
12634;DHT22;6382;48.614;8.880;2023-07-02T05:04:42;16.30;99.90
12634;DHT22;6382;48.614;8.880;2023-07-02T05:07:09;16.20;99.90
12634;DHT22;6382;48.614;8.880;2023-07-02T05:09:36;16.20;99.90
12634;DHT22;6382;48.614;8.880;2023-07-02T05:12:03;16.50;99.90
12634;DHT22;6382;48.614;8.880;2023-07-02T05:14:30;16.40;99.90
12634;DHT22;6382;48.614;8.880;2023-07-02T05:16:57;18.40;99.90
12634;DHT22;6382;48.614;8.880;2023-07-02T05:19:24;17.80;99.90
12634;DHT22;6382;48.614;8.880;2023-07-02T05:21:51;18.40;99.90
12634;DHT22;6382;48.614;8.880;2023-07-02T05:24:18;19.30;99.90
12634;DHT22;6382;48.614;8.880;2023-07-02T05:26:45;20.00;99.90
12634;DHT22;6382;48.614;8.880;2023-07-02T05:29:12;20.20;99.90
12634;DHT22;6382;48.614;8.880;2023-07-02T05:31:40;20.40;99.90
12634;DHT22;6382;48.614;8.880;2023-07-02T05:34:07;21.70;99.90
12634;DHT22;6382;48.614;8.880;2023-07-02T05:36:34;19.90;99.90
12634;DHT22;6382;48.614;8.880;2023-07-02T05:39:01;19.70;99.90
12634;DHT22;6382;48.614;8.880;2023-07-02T05:41:28;19.40;99.90
12634;DHT22;6382;48.614;8.880;2023-07-02T05:43:57;19.10;99.90
12634;DHT22;6382;48.614;8.880;2023-07-02T05:46:24;19.00;99.90
12634;DHT22;6382;48.614;8.880;2023-07-02T05:48:51;18.90;99.90
12634;DHT22;6382;48.614;8.880;2023-07-02T05:51:21;19.10;99.90
12634;DHT22;6382;48.614;8.880;2023-07-02T05:53:51;18.50;99.90
12634;DHT22;6382;48.614;8.880;2023-07-02T05:56:18;18.50;99.90
12634;DHT22;6382;48.614;8.880;2023-07-02T05:58:45;18.50;99.90
12634;DHT22;6382;48.614;8.880;2023-07-02T06:01:14;18.30;99.90
12634;DHT22;6382;48.614;8.880;2023-07-02T06:03:41;18.20;99.90
12634;DHT22;6382;48.614;8.880;2023-07-02T06:06:09;18.20;99.90
12634;DHT22;6382;48.614;8.880;2023-07-02T06:08:37;18.70;99.90
12634;DHT22;6382;48.614;8.880;2023-07-02T06:11:04;18.40;99.90
12634;DHT22;6382;48.614;8.880;2023-07-02T06:13:31;18.60;99.90
12634;DHT22;6382;48.614;8.880;2023-07-02T06:15:58;18.80;99.90
12634;DHT22;6382;48.614;8.880;2023-07-02T06:18:25;19.60;99.90
12634;DHT22;6382;48.614;8.880;2023-07-02T06:20:52;19.10;99.90
12634;DHT22;6382;48.614;8.880;2023-07-02T06:23:18;18.90;99.90
12634;DHT22;6382;48.614;8.880;2023-07-02T06:25:45;18.40;99.90
12634;DHT22;6382;48.614;8.880;2023-07-02T06:28:12;18.30;99.90
12634;DHT22;6382;48.614;8.880;2023-07-02T06:30:39;18.40;99.90
12634;DHT22;6382;48.614;8.880;2023-07-02T06:33:06;18.30;99.90
12634;DHT22;6382;48.614;8.880;2023-07-02T06:35:32;18.50;99.90
12634;DHT22;6382;48.614;8.880;2023-07-02T06:37:59;19.10;99.90
12634;DHT22;6382;48.614;8.880;2023-07-02T06:40:26;18.30;99.90
12634;DHT22;6382;48.614;8.880;2023-07-02T06:42:53;18.40;99.90
12634;DHT22;6382;48.614;8.880;2023-07-02T06:45:19;18.40;99.90
12634;DHT22;6382;48.614;8.880;2023-07-02T06:47:46;19.60;99.90
12634;DHT22;6382;48.614;8.880;2023-07-02T06:50:13;18.90;99.90
12634;DHT22;6382;48.614;8.880;2023-07-02T06:52:40;18.20;99.90
12634;DHT22;6382;48.614;8.880;2023-07-02T06:55:08;18.40;99.90
12634;DHT22;6382;48.614;8.880;2023-07-02T06:57:35;18.20;99.90
12634;DHT22;6382;48.614;8.880;2023-07-02T07:00:08;19.10;99.90
12634;DHT22;6382;48.614;8.880;2023-07-02T07:02:35;18.60;99.90
12634;DHT22;6382;48.614;8.880;2023-07-02T07:05:01;18.70;99.90
12634;DHT22;6382;48.614;8.880;2023-07-02T07:07:29;18.90;99.90
12634;DHT22;6382;48.614;8.880;2023-07-02T07:09:56;19.50;99.90
12634;DHT22;6382;48.614;8.880;2023-07-02T07:12:23;19.20;99.90
12634;DHT22;6382;48.614;8.880;2023-07-02T07:14:50;20.00;99.90
12634;DHT22;6382;48.614;8.880;2023-07-02T07:17:16;18.60;99.90
12634;DHT22;6382;48.614;8.880;2023-07-02T07:19:44;18.60;99.90
12634;DHT22;6382;48.614;8.880;2023-07-02T07:22:10;18.60;99.90
12634;DHT22;6382;48.614;8.880;2023-07-02T07:24:37;20.50;99.90
12634;DHT22;6382;48.614;8.880;2023-07-02T07:27:04;19.10;99.90
12634;DHT22;6382;48.614;8.880;2023-07-02T07:29:31;18.50;99.90
12634;DHT22;6382;48.614;8.880;2023-07-02T07:31:58;18.40;99.90
12634;DHT22;6382;48.614;8.880;2023-07-02T07:34:25;18.30;99.90
12634;DHT22;6382;48.614;8.880;2023-07-02T07:36:52;18.40;99.90
12634;DHT22;6382;48.614;8.880;2023-07-02T07:39:18;18.30;99.90
12634;DHT22;6382;48.614;8.880;2023-07-02T07:41:48;20.10;99.90
12634;DHT22;6382;48.614;8.880;2023-07-02T07:44:15;18.30;99.90
12634;DHT22;6382;48.614;8.880;2023-07-02T07:46:42;18.10;99.90
12634;DHT22;6382;48.614;8.880;2023-07-02T07:49:09;19.10;99.90
12634;DHT22;6382;48.614;8.880;2023-07-02T07:51:35;19.50;99.90
12634;DHT22;6382;48.614;8.880;2023-07-02T07:54:03;18.60;99.90
12634;DHT22;6382;48.614;8.880;2023-07-02T07:56:29;18.70;99.90
12634;DHT22;6382;48.614;8.880;2023-07-02T07:58:57;18.80;99.90
12634;DHT22;6382;48.614;8.880;2023-07-02T08:01:25;18.80;99.90
12634;DHT22;6382;48.614;8.880;2023-07-02T08:03:52;19.00;99.90
12634;DHT22;6382;48.614;8.880;2023-07-02T08:06:19;19.10;99.90
12634;DHT22;6382;48.614;8.880;2023-07-02T08:08:46;19.10;99.90
12634;DHT22;6382;48.614;8.880;2023-07-02T08:11:12;19.80;99.90
12634;DHT22;6382;48.614;8.880;2023-07-02T08:13:39;18.90;99.90
12634;DHT22;6382;48.614;8.880;2023-07-02T08:16:06;21.70;99.90
12634;DHT22;6382;48.614;8.880;2023-07-02T08:18:33;20.10;99.90
12634;DHT22;6382;48.614;8.880;2023-07-02T08:21:00;19.20;99.90
12634;DHT22;6382;48.614;8.880;2023-07-02T08:23:26;19.90;99.90
12634;DHT22;6382;48.614;8.880;2023-07-02T08:25:53;20.60;99.90
12634;DHT22;6382;48.614;8.880;2023-07-02T08:28:20;19.50;99.90
12634;DHT22;6382;48.614;8.880;2023-07-02T08:30:47;19.50;99.90
12634;DHT22;6382;48.614;8.880;2023-07-02T08:33:14;22.40;99.90
12634;DHT22;6382;48.614;8.880;2023-07-02T08:35:41;21.80;99.90
12634;DHT22;6382;48.614;8.880;2023-07-02T08:38:08;19.40;99.90
12634;DHT22;6382;48.614;8.880;2023-07-02T08:40:35;17.00;99.90
12634;DHT22;6382;48.614;8.880;2023-07-02T08:43:01;19.30;99.90
12634;DHT22;6382;48.614;8.880;2023-07-02T08:45:28;19.40;99.90
12634;DHT22;6382;48.614;8.880;2023-07-02T08:47:56;19.50;99.90
12634;DHT22;6382;48.614;8.880;2023-07-02T08:50:24;19.70;99.90
12634;DHT22;6382;48.614;8.880;2023-07-02T08:52:52;19.90;99.90
12634;DHT22;6382;48.614;8.880;2023-07-02T08:55:20;20.10;99.90
12634;DHT22;6382;48.614;8.880;2023-07-02T08:57:49;20.30;99.90
12634;DHT22;6382;48.614;8.880;2023-07-02T09:00:16;20.60;99.90
12634;DHT22;6382;48.614;8.880;2023-07-02T09:02:43;20.40;99.90
12634;DHT22;6382;48.614;8.880;2023-07-02T09:05:11;20.20;99.90
12634;DHT22;6382;48.614;8.880;2023-07-02T09:07:49;21.00;99.90
12634;DHT22;6382;48.614;8.880;2023-07-02T09:10:26;19.80;99.90
12634;DHT22;6382;48.614;8.880;2023-07-02T09:13:04;19.60;99.90
12634;DHT22;6382;48.614;8.880;2023-07-02T09:15:35;19.70;99.90
12634;DHT22;6382;48.614;8.880;2023-07-02T09:18:02;19.90;99.90
12634;DHT22;6382;48.614;8.880;2023-07-02T09:20:32;20.20;99.90
12634;DHT22;6382;48.614;8.880;2023-07-02T09:22:59;20.40;99.90
12634;DHT22;6382;48.614;8.880;2023-07-02T09:25:36;22.20;99.90
12634;DHT22;6382;48.614;8.880;2023-07-02T09:28:22;20.90;99.90
12634;DHT22;6382;48.614;8.880;2023-07-02T09:30:53;21.00;99.90
12634;DHT22;6382;48.614;8.880;2023-07-02T09:33:20;20.90;99.90
12634;DHT22;6382;48.614;8.880;2023-07-02T09:35:48;22.30;99.90
12634;DHT22;6382;48.614;8.880;2023-07-02T09:38:15;21.20;99.90
12634;DHT22;6382;48.614;8.880;2023-07-02T09:40:51;21.10;99.90
12634;DHT22;6382;48.614;8.880;2023-07-02T09:43:19;21.10;99.90
12634;DHT22;6382;48.614;8.880;2023-07-02T09:45:47;21.20;99.90
12634;DHT22;6382;48.614;8.880;2023-07-02T09:48:14;21.10;99.90
12634;DHT22;6382;48.614;8.880;2023-07-02T09:50:45;21.80;99.90
12634;DHT22;6382;48.614;8.880;2023-07-02T09:53:12;21.10;99.90
12634;DHT22;6382;48.614;8.880;2023-07-02T09:55:39;21.00;99.90
12634;DHT22;6382;48.614;8.880;2023-07-02T09:58:08;21.10;99.90
12634;DHT22;6382;48.614;8.880;2023-07-02T10:00:35;21.50;99.90
12634;DHT22;6382;48.614;8.880;2023-07-02T10:03:02;21.40;99.90
12634;DHT22;6382;48.614;8.880;2023-07-02T10:05:32;21.40;99.90
12634;DHT22;6382;48.614;8.880;2023-07-02T10:08:16;21.50;99.90
12634;DHT22;6382;48.614;8.880;2023-07-02T10:10:49;21.30;99.90
12634;DHT22;6382;48.614;8.880;2023-07-02T10:13:26;21.80;99.90
12634;DHT22;6382;48.614;8.880;2023-07-02T10:16:00;21.60;99.90
12634;DHT22;6382;48.614;8.880;2023-07-02T10:18:27;21.50;99.90
12634;DHT22;6382;48.614;8.880;2023-07-02T10:20:54;22.30;99.90
12634;DHT22;6382;48.614;8.880;2023-07-02T10:23:22;21.50;99.90
12634;DHT22;6382;48.614;8.880;2023-07-02T10:26:09;21.10;99.90
12634;DHT22;6382;48.614;8.880;2023-07-02T10:28:35;21.20;99.90
12634;DHT22;6382;48.614;8.880;2023-07-02T10:31:02;21.40;99.90
12634;DHT22;6382;48.614;8.880;2023-07-02T10:33:29;21.50;99.90
12634;DHT22;6382;48.614;8.880;2023-07-02T10:35:56;21.60;99.90
12634;DHT22;6382;48.614;8.880;2023-07-02T10:38:23;21.80;99.90
12634;DHT22;6382;48.614;8.880;2023-07-02T10:40:55;22.00;99.90
12634;DHT22;6382;48.614;8.880;2023-07-02T10:43:30;22.20;99.70
12634;DHT22;6382;48.614;8.880;2023-07-02T10:45:57;22.10;98.90
12634;DHT22;6382;48.614;8.880;2023-07-02T10:48:27;22.10;99.20
12634;DHT22;6382;48.614;8.880;2023-07-02T10:50:54;22.10;99.70
12634;DHT22;6382;48.614;8.880;2023-07-02T10:53:21;22.20;99.90
12634;DHT22;6382;48.614;8.880;2023-07-02T10:55:55;22.50;99.90
12634;DHT22;6382;48.614;8.880;2023-07-02T10:58:24;22.20;99.20
12634;DHT22;6382;48.614;8.880;2023-07-02T11:00:52;22.20;99.90
12634;DHT22;6382;48.614;8.880;2023-07-02T11:03:19;22.30;98.50
12634;DHT22;6382;48.614;8.880;2023-07-02T11:05:46;22.40;99.10
12634;DHT22;6382;48.614;8.880;2023-07-02T11:08:14;22.30;99.90
12634;DHT22;6382;48.614;8.880;2023-07-02T11:10:41;22.50;97.30
12634;DHT22;6382;48.614;8.880;2023-07-02T11:13:14;22.10;96.20
12634;DHT22;6382;48.614;8.880;2023-07-02T11:15:41;22.00;97.70
12634;DHT22;6382;48.614;8.880;2023-07-02T11:18:09;22.20;97.50
12634;DHT22;6382;48.614;8.880;2023-07-02T11:20:37;22.00;96.40
12634;DHT22;6382;48.614;8.880;2023-07-02T11:23:04;22.10;97.50
12634;DHT22;6382;48.614;8.880;2023-07-02T11:25:32;22.10;96.90
12634;DHT22;6382;48.614;8.880;2023-07-02T11:28:03;21.90;98.10
12634;DHT22;6382;48.614;8.880;2023-07-02T11:30:30;21.70;97.60
12634;DHT22;6382;48.614;8.880;2023-07-02T11:32:57;22.30;98.60
12634;DHT22;6382;48.614;8.880;2023-07-02T11:35:33;21.40;98.80
12634;DHT22;6382;48.614;8.880;2023-07-02T11:38:00;21.60;98.40
12634;DHT22;6382;48.614;8.880;2023-07-02T11:40:27;22.10;97.30
12634;DHT22;6382;48.614;8.880;2023-07-02T11:42:54;22.10;95.90
12634;DHT22;6382;48.614;8.880;2023-07-02T11:45:21;22.00;96.60
12634;DHT22;6382;48.614;8.880;2023-07-02T11:47:48;22.10;96.00
12634;DHT22;6382;48.614;8.880;2023-07-02T11:50:15;22.30;95.90
12634;DHT22;6382;48.614;8.880;2023-07-02T11:52:52;22.30;96.40
12634;DHT22;6382;48.614;8.880;2023-07-02T11:55:19;22.20;96.50
12634;DHT22;6382;48.614;8.880;2023-07-02T11:57:47;22.20;96.50
12634;DHT22;6382;48.614;8.880;2023-07-02T12:00:16;22.30;96.50
12634;DHT22;6382;48.614;8.880;2023-07-02T12:02:43;22.70;96.70
12634;DHT22;6382;48.614;8.880;2023-07-02T12:05:10;23.10;95.70
12634;DHT22;6382;48.614;8.880;2023-07-02T12:07:38;23.40;94.80
12634;DHT22;6382;48.614;8.880;2023-07-02T12:10:06;23.40;94.20
12634;DHT22;6382;48.614;8.880;2023-07-02T12:12:34;23.40;92.90
12634;DHT22;6382;48.614;8.880;2023-07-02T12:15:00;23.30;93.30
12634;DHT22;6382;48.614;8.880;2023-07-02T12:17:27;22.90;93.40
12634;DHT22;6382;48.614;8.880;2023-07-02T12:19:55;22.70;93.10
12634;DHT22;6382;48.614;8.880;2023-07-02T12:22:22;23.30;92.60
12634;DHT22;6382;48.614;8.880;2023-07-02T12:24:49;22.50;91.90
12634;DHT22;6382;48.614;8.880;2023-07-02T12:27:17;22.60;92.50
12634;DHT22;6382;48.614;8.880;2023-07-02T12:29:44;22.60;93.40
12634;DHT22;6382;48.614;8.880;2023-07-02T12:32:10;22.80;94.30
12634;DHT22;6382;48.614;8.880;2023-07-02T12:34:38;22.90;93.40
12634;DHT22;6382;48.614;8.880;2023-07-02T12:37:05;22.90;92.20
12634;DHT22;6382;48.614;8.880;2023-07-02T12:39:32;23.10;93.50
12634;DHT22;6382;48.614;8.880;2023-07-02T12:41:59;23.20;91.60
12634;DHT22;6382;48.614;8.880;2023-07-02T12:44:26;23.10;91.60
12634;DHT22;6382;48.614;8.880;2023-07-02T12:46:53;23.00;91.80
12634;DHT22;6382;48.614;8.880;2023-07-02T12:49:21;23.10;91.10
12634;DHT22;6382;48.614;8.880;2023-07-02T12:51:48;23.20;93.90
12634;DHT22;6382;48.614;8.880;2023-07-02T12:54:15;23.30;91.10
12634;DHT22;6382;48.614;8.880;2023-07-02T12:56:42;23.50;91.70
12634;DHT22;6382;48.614;8.880;2023-07-02T12:59:18;23.50;90.80
12634;DHT22;6382;48.614;8.880;2023-07-02T13:01:45;23.40;90.10
12634;DHT22;6382;48.614;8.880;2023-07-02T13:04:12;23.20;92.90
12634;DHT22;6382;48.614;8.880;2023-07-02T13:06:41;23.20;92.10
12634;DHT22;6382;48.614;8.880;2023-07-02T13:09:08;23.40;91.30
12634;DHT22;6382;48.614;8.880;2023-07-02T13:11:35;23.50;91.20
12634;DHT22;6382;48.614;8.880;2023-07-02T13:14:02;23.70;92.00
12634;DHT22;6382;48.614;8.880;2023-07-02T13:16:29;23.70;90.70
12634;DHT22;6382;48.614;8.880;2023-07-02T13:18:56;23.40;90.90
12634;DHT22;6382;48.614;8.880;2023-07-02T13:21:23;23.30;90.60
12634;DHT22;6382;48.614;8.880;2023-07-02T13:23:50;23.40;90.60
12634;DHT22;6382;48.614;8.880;2023-07-02T13:26:17;23.40;90.70
12634;DHT22;6382;48.614;8.880;2023-07-02T13:28:43;23.30;90.10
12634;DHT22;6382;48.614;8.880;2023-07-02T13:31:13;23.00;89.40
12634;DHT22;6382;48.614;8.880;2023-07-02T13:33:40;22.80;92.10
12634;DHT22;6382;48.614;8.880;2023-07-02T13:36:08;22.70;91.00
12634;DHT22;6382;48.614;8.880;2023-07-02T13:38:35;22.90;91.40
12634;DHT22;6382;48.614;8.880;2023-07-02T13:41:01;23.10;91.50
12634;DHT22;6382;48.614;8.880;2023-07-02T13:43:28;23.30;90.90
12634;DHT22;6382;48.614;8.880;2023-07-02T13:45:55;23.30;92.20
12634;DHT22;6382;48.614;8.880;2023-07-02T13:48:22;23.50;91.80
12634;DHT22;6382;48.614;8.880;2023-07-02T13:50:52;23.70;91.90
12634;DHT22;6382;48.614;8.880;2023-07-02T13:53:19;24.00;91.40
12634;DHT22;6382;48.614;8.880;2023-07-02T13:55:46;24.00;91.90
12634;DHT22;6382;48.614;8.880;2023-07-02T13:58:14;24.00;91.30
12634;DHT22;6382;48.614;8.880;2023-07-02T14:00:54;24.00;91.00
12634;DHT22;6382;48.614;8.880;2023-07-02T14:03:21;23.80;91.80
12634;DHT22;6382;48.614;8.880;2023-07-02T14:05:48;23.90;91.70
12634;DHT22;6382;48.614;8.880;2023-07-02T14:08:17;24.00;92.30
12634;DHT22;6382;48.614;8.880;2023-07-02T14:10:44;24.00;91.80
12634;DHT22;6382;48.614;8.880;2023-07-02T14:13:11;24.10;91.40
12634;DHT22;6382;48.614;8.880;2023-07-02T14:15:38;24.10;91.80
12634;DHT22;6382;48.614;8.880;2023-07-02T14:18:04;24.10;92.20
12634;DHT22;6382;48.614;8.880;2023-07-02T14:20:32;23.90;92.00
12634;DHT22;6382;48.614;8.880;2023-07-02T14:22:59;23.60;91.50
12634;DHT22;6382;48.614;8.880;2023-07-02T14:25:26;23.50;92.20
12634;DHT22;6382;48.614;8.880;2023-07-02T14:28:06;23.40;92.40
12634;DHT22;6382;48.614;8.880;2023-07-02T14:30:33;23.10;92.80
12634;DHT22;6382;48.614;8.880;2023-07-02T14:33:00;23.20;94.10
12634;DHT22;6382;48.614;8.880;2023-07-02T14:35:27;23.10;93.50
12634;DHT22;6382;48.614;8.880;2023-07-02T14:37:56;23.10;92.80
12634;DHT22;6382;48.614;8.880;2023-07-02T14:40:23;23.00;93.80
12634;DHT22;6382;48.614;8.880;2023-07-02T14:42:50;22.80;94.10
12634;DHT22;6382;48.614;8.880;2023-07-02T14:45:17;23.00;94.10
12634;DHT22;6382;48.614;8.880;2023-07-02T14:47:44;23.20;92.70
12634;DHT22;6382;48.614;8.880;2023-07-02T14:50:11;23.40;92.10
12634;DHT22;6382;48.614;8.880;2023-07-02T14:52:38;23.50;92.10
12634;DHT22;6382;48.614;8.880;2023-07-02T14:55:05;23.70;92.70
12634;DHT22;6382;48.614;8.880;2023-07-02T14:57:33;24.00;92.40
12634;DHT22;6382;48.614;8.880;2023-07-02T15:00:00;25.20;93.50
12634;DHT22;6382;48.614;8.880;2023-07-02T15:02:27;24.40;92.00
12634;DHT22;6382;48.614;8.880;2023-07-02T15:04:54;24.30;91.50
12634;DHT22;6382;48.614;8.880;2023-07-02T15:07:22;24.20;91.00
12634;DHT22;6382;48.614;8.880;2023-07-02T15:09:49;24.20;90.40
12634;DHT22;6382;48.614;8.880;2023-07-02T15:12:16;24.20;91.40
12634;DHT22;6382;48.614;8.880;2023-07-02T15:14:43;24.30;90.50
12634;DHT22;6382;48.614;8.880;2023-07-02T15:17:10;24.40;90.80
12634;DHT22;6382;48.614;8.880;2023-07-02T15:19:37;24.50;88.30
12634;DHT22;6382;48.614;8.880;2023-07-02T15:22:05;23.20;88.40
12634;DHT22;6382;48.614;8.880;2023-07-02T15:24:31;24.50;89.80
12634;DHT22;6382;48.614;8.880;2023-07-02T15:27:01;24.50;91.20
12634;DHT22;6382;48.614;8.880;2023-07-02T15:29:28;24.30;90.50
12634;DHT22;6382;48.614;8.880;2023-07-02T15:31:55;24.90;90.70
12634;DHT22;6382;48.614;8.880;2023-07-02T15:34:21;23.80;90.80
12634;DHT22;6382;48.614;8.880;2023-07-02T15:36:48;23.30;91.50
12634;DHT22;6382;48.614;8.880;2023-07-02T15:39:16;23.40;92.50
12634;DHT22;6382;48.614;8.880;2023-07-02T15:41:48;25.10;92.60
12634;DHT22;6382;48.614;8.880;2023-07-02T15:44:15;23.30;93.00
12634;DHT22;6382;48.614;8.880;2023-07-02T15:46:42;23.10;92.80
12634;DHT22;6382;48.614;8.880;2023-07-02T15:49:11;23.30;92.40
12634;DHT22;6382;48.614;8.880;2023-07-02T15:51:38;23.20;92.30